Linden, North Carolina
Current Conditions -  °F | °C
As of 7:55 PM on Saturday 25 Oct 2014 (Local Time) from KHRJ Reporting Station
Clear Clear  
Wind Chill: 58°   Ceiling: Unl
Heat Index: 58°   Visibility: 10mi
Dew Point: 51°   Wind: 0mph
Humidity: 78%   Direction: NA
Pressure: 29.92"   Gusts: NA
Location:  35.25°N, 78.75°W
Report Text: KHRJ 252355Z AUTO 00000KT 10SM CLR 15/11 A2992 RMK AO2 T01450108 10218 20144
Loading
Personal Weather Stations






























Interactive Weather Map
Tropical Storm Tracking
New forecast layout! Learn more

10-Day Weather Forecast

Advertisements
Track Severe Weather on mobile